Association Sportive et Culturelle de l' Aéroport de Blagnac

Section Vol Moteur

Bienvenue sur le site ASCAB Vol Moteur

LFBO TOULOUSE-BLAGNAC

METAR :
2024/06/24 03:30 LFBO 240330Z AUTO 16003KT CAVOK 13/12 Q1017 NOSIG

TAF :
2024/06/23 18:42 TAF LFBO 231700Z 2318/2424 32010KT CAVOK BECMG 2321/2323 VRB03KT FM241100 32010KT 9999 BKN045 BECMG 2415/2417 CAVOK BECMG 2418/2420 VRB03KT